Time;durP1;ratioP1;P1;durP2;ratioP2;P2;SDS_P1;SDS_P2;PMS_P1;PMS_P2;Temp;Humidity;BMP_temperature;BMP_pressure;BME280_temperature;BME280_humidity;BME280_pressure;Samples;Min_cycle;Max_cycle;Signal;HPM_P1;HPM_P2
2023/05/06 00:00:53;;;;;;;11.70;2.85;;;;;;;14.88;42.50;101764.25;5116139;27;20488;-37
2023/05/06 00:03:18;;;;;;;5.28;2.30;;;;;;;14.87;42.27;101765.19;5095419;27;20023;-35
2023/05/06 00:05:45;;;;;;;7.13;2.65;;;;;;;14.91;42.39;101773.81;5095029;27;20034;-39
2023/05/06 00:08:11;;;;;;;5.70;3.05;;;;;;;14.88;42.15;101758.94;5081037;27;20027;-40
2023/05/06 00:10:36;;;;;;;6.85;2.88;;;;;;;14.82;42.31;101766.41;5090991;27;20042;-39
2023/05/06 00:13:02;;;;;;;5.65;2.35;;;;;;;14.78;42.26;101776.31;5111907;27;20035;-38
2023/05/06 00:15:28;;;;;;;6.70;2.63;;;;;;;14.76;42.51;101767.59;5116272;27;20460;-36
2023/05/06 00:17:54;;;;;;;9.15;3.20;;;;;;;14.74;42.37;101772.16;5078226;27;20031;-40
2023/05/06 00:20:20;;;;;;;6.10;2.47;;;;;;;14.66;42.67;101766.41;5113749;27;20030;-38
2023/05/06 00:22:45;;;;;;;7.20;3.08;;;;;;;14.69;42.55;101769.75;5112376;27;20388;-38
2023/05/06 00:25:11;;;;;;;6.90;2.72;;;;;;;14.73;42.52;101767.81;5115821;27;20475;-40
2023/05/06 00:27:36;;;;;;;9.40;3.35;;;;;;;14.74;42.33;101769.53;5104430;27;20028;-41
2023/05/06 00:30:03;;;;;;;8.93;3.05;;;;;;;14.74;42.13;101766.88;5100496;27;20023;-40
2023/05/06 00:32:28;;;;;;;4.00;2.60;;;;;;;14.77;42.26;101764.00;5105958;27;20031;-40
2023/05/06 00:34:53;;;;;;;6.32;2.67;;;;;;;14.76;42.12;101759.66;5107472;27;20034;-37
2023/05/06 00:37:19;;;;;;;8.20;2.92;;;;;;;14.73;42.24;101755.41;5082497;27;20031;-39
2023/05/06 00:39:45;;;;;;;9.23;2.88;;;;;;;14.71;42.26;101759.09;5084687;27;20035;-40
2023/05/06 00:42:10;;;;;;;7.35;3.33;;;;;;;14.72;42.39;101755.50;5114197;27;20581;-38
2023/05/06 00:44:36;;;;;;;9.05;3.15;;;;;;;14.70;42.41;101754.75;5100631;27;20552;-38
2023/05/06 00:47:01;;;;;;;6.03;2.88;;;;;;;14.65;42.59;101755.00;5096199;27;20046;-38
2023/05/06 00:49:28;;;;;;;5.70;2.42;;;;;;;14.64;42.66;101753.28;5091247;27;20095;-40
2023/05/06 00:51:55;;;;;;;12.48;3.28;;;;;;;14.63;42.88;101748.91;5097607;27;20054;-35
2023/05/06 00:54:21;;;;;;;6.63;3.30;;;;;;;14.63;42.55;101751.56;5080840;27;20023;-40
2023/05/06 00:56:47;;;;;;;7.65;3.30;;;;;;;14.55;42.89;101737.91;5063251;27;20073;-41
2023/05/06 00:59:15;;;;;;;8.18;3.55;;;;;;;14.50;43.11;101735.53;5097421;27;20035;-35
2023/05/06 01:01:41;;;;;;;6.80;2.92;;;;;;;14.42;42.97;101737.78;5058179;27;20035;-38
2023/05/06 01:04:07;;;;;;;5.47;3.38;;;;;;;14.35;43.24;101736.44;5097831;27;20023;-40
2023/05/06 01:06:39;;;;;;;6.60;2.85;;;;;;;14.35;43.25;101736.44;5075235;27;20034;-37
2023/05/06 01:09:19;;;;;;;6.60;2.53;;;;;;;14.26;43.25;101733.38;5092452;27;20031;-38
2023/05/06 01:12:08;;;;;;;6.72;2.90;;;;;;;14.21;43.33;101732.78;5097508;27;20118;-40
2023/05/06 01:15:05;;;;;;;6.28;3.15;;;;;;;14.16;44.21;101737.47;5095150;27;20027;-37
2023/05/06 01:17:34;;;;;;;5.95;2.90;;;;;;;14.14;43.71;101739.38;5087481;27;20019;-41
2023/05/06 01:20:01;;;;;;;9.27;3.05;;;;;;;14.15;43.93;101735.78;5088390;27;20030;-36
2023/05/06 01:22:27;;;;;;;10.13;3.22;;;;;;;14.17;44.15;101739.19;5100465;27;20110;-39
2023/05/06 01:24:53;;;;;;;10.23;4.03;;;;;;;14.12;44.41;101733.31;5076599;27;20078;-37
2023/05/06 01:27:19;;;;;;;9.23;3.70;;;;;;;14.12;44.57;101738.63;5083689;27;20043;-35
2023/05/06 01:29:46;;;;;;;9.57;2.88;;;;;;;14.04;44.83;101733.75;5112048;27;20053;-39
2023/05/06 01:32:18;;;;;;;8.40;3.25;;;;;;;13.96;45.43;101728.03;5080467;27;20126;-39
2023/05/06 01:35:04;;;;;;;12.20;3.53;;;;;;;13.95;46.40;101734.25;5115131;27;20023;-41
2023/05/06 01:37:45;;;;;;;12.10;5.10;;;;;;;13.96;46.29;101731.53;5082597;27;20495;-37
2023/05/06 01:40:13;;;;;;;10.40;4.27;;;;;;;13.95;46.20;101724.56;5089192;27;20079;-39
2023/05/06 01:42:40;;;;;;;14.30;4.05;;;;;;;13.93;46.22;101721.13;5096132;27;21973;-39
2023/05/06 01:45:08;;;;;;;9.18;3.38;;;;;;;13.89;46.32;101724.88;5077846;27;20070;-38
2023/05/06 01:47:35;;;;;;;9.23;3.03;;;;;;;13.81;46.75;101722.66;5076436;27;20500;-37
2023/05/06 01:50:00;;;;;;;6.97;2.75;;;;;;;13.77;46.60;101725.56;5075618;27;20036;-40
2023/05/06 01:52:26;;;;;;;6.72;2.67;;;;;;;13.78;46.70;101724.63;5092169;27;20027;-39
2023/05/06 01:54:52;;;;;;;6.72;3.25;;;;;;;13.74;46.95;101715.16;5099901;28;20564;-41
2023/05/06 01:57:17;;;;;;;7.82;3.25;;;;;;;13.66;47.41;101721.75;5093842;27;20118;-35
2023/05/06 01:59:43;;;;;;;7.45;3.00;;;;;;;13.60;47.68;101724.72;5096705;27;20038;-37
2023/05/06 02:02:08;;;;;;;5.22;3.10;;;;;;;13.60;48.03;101722.06;5072501;27;20065;-39
2023/05/06 02:04:34;;;;;;;7.60;3.20;;;;;;;13.59;47.92;101717.72;5090111;27;20022;-39
2023/05/06 02:06:59;;;;;;;7.53;3.00;;;;;;;13.56;48.33;101715.22;5075265;27;20035;-36
2023/05/06 02:09:25;;;;;;;10.75;3.70;;;;;;;13.53;48.63;101716.25;5093731;28;20126;-39
2023/05/06 02:11:50;;;;;;;9.60;3.40;;;;;;;13.54;48.59;101717.09;5089906;27;20096;-37
2023/05/06 02:14:18;;;;;;;11.23;3.50;;;;;;;13.51;48.76;101717.28;5089460;27;20393;-36
2023/05/06 02:16:43;;;;;;;7.05;3.72;;;;;;;13.47;48.77;101711.28;5074983;28;20028;-36
2023/05/06 02:19:09;;;;;;;5.93;2.75;;;;;;;13.48;49.21;101709.53;5094837;27;20099;-41
2023/05/06 02:21:37;;;;;;;7.72;3.10;;;;;;;13.40;49.15;101705.50;5065029;27;20031;-40
2023/05/06 02:24:03;;;;;;;9.75;3.42;;;;;;;13.40;49.33;101707.28;5090506;28;20027;-40
2023/05/06 02:26:29;;;;;;;8.05;3.47;;;;;;;13.33;49.61;101706.75;5074469;27;20191;-39
2023/05/06 02:28:54;;;;;;;7.90;4.28;;;;;;;13.32;49.88;101699.75;5100352;27;20024;-36
2023/05/06 02:31:20;;;;;;;9.32;3.45;;;;;;;13.29;50.02;101693.78;5083111;27;20054;-39
2023/05/06 02:33:46;;;;;;;7.63;3.33;;;;;;;13.22;50.12;101690.63;5105398;27;20035;-40
2023/05/06 02:36:11;;;;;;;10.32;3.55;;;;;;;13.21;50.33;101687.09;5093686;27;21384;-41
2023/05/06 02:38:37;;;;;;;7.03;3.03;;;;;;;13.20;50.49;101687.19;5102102;27;20151;-36
2023/05/06 02:41:02;;;;;;;6.68;2.90;;;;;;;13.11;50.63;101678.81;5090220;27;20031;-39
2023/05/06 02:43:28;;;;;;;8.20;3.22;;;;;;;13.09;50.73;101675.41;5082809;27;20114;-39
2023/05/06 02:45:53;;;;;;;11.23;3.20;;;;;;;13.10;50.62;101679.75;5100831;27;20085;-40
2023/05/06 02:48:19;;;;;;;9.18;3.90;;;;;;;13.14;50.95;101679.59;5099916;27;20114;-37
2023/05/06 02:50:44;;;;;;;9.35;3.95;;;;;;;13.13;50.94;101672.59;5091794;27;20079;-40
2023/05/06 02:53:12;;;;;;;7.43;3.20;;;;;;;13.13;51.04;101686.69;5121306;27;20030;-39
2023/05/06 02:55:37;;;;;;;5.57;3.10;;;;;;;13.14;51.15;101674.31;5106024;27;20026;-36
2023/05/06 02:58:03;;;;;;;8.73;3.58;;;;;;;13.10;51.31;101679.75;5114412;27;20035;-40
2023/05/06 03:00:29;;;;;;;6.97;3.38;;;;;;;13.10;51.38;101674.47;5103104;27;20863;-41
2023/05/06 03:02:54;;;;;;;7.88;3.45;;;;;;;13.09;51.44;101672.75;5099949;27;20023;-39
2023/05/06 03:05:20;;;;;;;6.53;3.08;;;;;;;13.06;51.57;101678.22;5113650;27;20015;-38
2023/05/06 03:07:45;;;;;;;5.50;3.17;;;;;;;13.08;51.46;101673.69;5098757;27;20039;-40
2023/05/06 03:10:11;;;;;;;9.02;3.72;;;;;;;13.10;51.74;101663.06;5080812;27;20058;-37
2023/05/06 03:12:36;;;;;;;10.25;3.53;;;;;;;13.05;51.91;101657.16;5106944;27;20031;-38
2023/05/06 03:15:02;;;;;;;7.70;3.30;;;;;;;12.99;51.96;101665.44;5080358;27;20027;-37
2023/05/06 03:17:28;;;;;;;7.18;3.17;;;;;;;12.97;52.25;101665.50;5085083;27;20286;-39
2023/05/06 03:19:53;;;;;;;8.82;3.47;;;;;;;12.94;52.68;101663.88;5067712;27;20035;-39
2023/05/06 03:22:19;;;;;;;8.85;3.70;;;;;;;12.93;52.76;101669.25;5078975;27;20039;-38
2023/05/06 03:24:45;;;;;;;8.70;3.90;;;;;;;12.94;52.46;101660.34;5084943;27;20440;-37
2023/05/06 03:27:10;;;;;;;10.50;3.75;;;;;;;12.98;52.72;101661.06;5067470;27;20118;-39
2023/05/06 03:29:35;;;;;;;8.15;3.92;;;;;;;12.95;52.70;101654.16;5079355;27;20066;-40
2023/05/06 03:32:02;;;;;;;9.15;4.28;;;;;;;12.95;52.82;101649.72;5081628;27;20473;-39
2023/05/06 03:34:29;;;;;;;9.57;3.80;;;;;;;12.93;53.08;101650.75;5079665;27;20027;-39
2023/05/06 03:36:56;;;;;;;6.20;3.30;;;;;;;12.89;53.13;101649.22;5082330;27;20035;-40
2023/05/06 03:39:22;;;;;;;13.25;3.38;;;;;;;12.88;53.22;101644.84;5097939;27;20095;-39
2023/05/06 03:41:47;;;;;;;5.97;3.50;;;;;;;12.90;53.22;101643.00;5085064;27;20477;-41
2023/05/06 03:44:13;;;;;;;9.23;3.63;;;;;;;12.89;53.33;101639.47;5096396;27;20402;-41
2023/05/06 03:46:40;;;;;;;6.25;3.50;;;;;;;12.86;53.64;101638.81;5081405;27;20122;-41
2023/05/06 03:49:06;;;;;;;8.60;4.00;;;;;;;12.86;53.67;101639.63;5078069;27;20038;-41
2023/05/06 03:51:31;;;;;;;6.75;3.60;;;;;;;12.81;53.81;101634.59;5079063;27;20027;-40
2023/05/06 03:53:57;;;;;;;10.38;4.10;;;;;;;12.80;53.84;101640.81;5091865;27;20106;-38
2023/05/06 03:56:22;;;;;;;7.88;4.05;;;;;;;12.78;54.10;101636.56;5080282;27;20030;-39
2023/05/06 03:58:48;;;;;;;8.65;3.60;;;;;;;12.75;54.20;101636.72;5081780;27;20540;-39
2023/05/06 04:01:14;;;;;;;6.70;3.30;;;;;;;12.71;54.38;101630.75;5084789;27;20034;-41
2023/05/06 04:03:40;;;;;;;8.50;4.78;;;;;;;12.73;54.32;101623.59;5098242;27;20027;-36
2023/05/06 04:06:08;;;;;;;9.15;4.03;;;;;;;12.70;54.68;101634.31;5078443;27;20400;-36
2023/05/06 04:08:34;;;;;;;6.55;3.63;;;;;;;12.78;54.54;101628.63;5083364;27;20050;-37
2023/05/06 04:11:03;;;;;;;6.60;3.50;;;;;;;12.78;55.04;101626.84;5084470;27;20041;-40
2023/05/06 04:13:29;;;;;;;7.95;3.58;;;;;;;12.79;54.91;101631.19;5102080;27;20034;-40
2023/05/06 04:15:55;;;;;;;7.30;3.90;;;;;;;12.80;54.89;101627.63;5111552;27;20031;-40
2023/05/06 04:18:21;;;;;;;9.15;3.60;;;;;;;12.77;55.25;101625.16;5105367;27;20026;-40
2023/05/06 04:20:49;;;;;;;7.82;4.20;;;;;;;12.79;55.31;101636.47;5096618;27;20023;-40
2023/05/06 04:23:15;;;;;;;8.05;3.63;;;;;;;12.78;55.67;101631.28;5087799;27;20067;-39
2023/05/06 04:25:47;;;;;;;8.50;3.40;;;;;;;12.72;55.75;101632.47;5091996;27;21674;-40
2023/05/06 04:28:13;;;;;;;;;;;;;;;12.66;58.00;101630.13;5068686;27;20031;-39
2023/05/06 04:30:38;;;;;;;8.57;4.00;;;;;;;12.60;55.62;101628.66;5094108;27;19926;-37
2023/05/06 04:33:04;;;;;;;8.80;3.35;;;;;;;12.66;55.74;101627.50;5103458;27;20035;-39
2023/05/06 04:35:29;;;;;;;9.10;4.13;;;;;;;12.71;55.78;101628.13;5078953;27;20467;-40
2023/05/06 04:37:58;;;;;;;9.90;4.13;;;;;;;12.69;56.37;101632.63;5086026;27;20035;-40
2023/05/06 04:40:25;;;;;;;8.48;3.70;;;;;;;12.64;56.23;101629.34;5064760;27;20023;-39
2023/05/06 04:42:51;;;;;;;8.07;3.53;;;;;;;12.66;55.87;101624.84;5096368;27;20078;-40
2023/05/06 04:45:16;;;;;;;9.63;4.63;;;;;;;12.65;56.40;101636.34;5058991;27;20027;-39
2023/05/06 04:47:42;;;;;;;7.28;3.97;;;;;;;12.65;56.37;101629.28;5094140;27;20043;-39
2023/05/06 04:50:08;;;;;;;6.95;3.72;;;;;;;12.66;56.43;101638.06;5080555;27;20139;-39
2023/05/06 04:52:35;;;;;;;6.95;3.95;;;;;;;12.61;56.77;101637.47;5109738;27;20027;-36
2023/05/06 04:55:01;;;;;;;7.72;4.32;;;;;;;12.66;56.44;101635.41;5097926;27;20030;-40
2023/05/06 04:57:26;;;;;;;17.73;8.07;;;;;;;12.71;56.53;101643.97;5102332;27;20115;-39
2023/05/06 04:59:52;;;;;;;10.23;4.53;;;;;;;12.71;56.84;101641.31;5083092;27;20118;-41
2023/05/06 05:02:17;;;;;;;9.43;3.75;;;;;;;12.73;56.59;101636.81;5071627;27;20043;-39
2023/05/06 05:04:43;;;;;;;6.82;3.92;;;;;;;12.73;56.87;101631.53;5097268;27;20019;-38
2023/05/06 05:07:09;;;;;;;14.25;5.13;;;;;;;12.76;56.93;101639.28;5079445;27;20031;-39
2023/05/06 05:09:35;;;;;;;10.35;4.75;;;;;;;12.80;56.79;101635.53;5076295;27;20019;-38
2023/05/06 05:12:01;;;;;;;8.85;4.63;;;;;;;12.83;56.67;101638.94;5095006;27;20432;-37
2023/05/06 05:14:27;;;;;;;8.80;4.18;;;;;;;12.79;56.69;101643.56;5109108;27;20110;-40
2023/05/06 05:16:52;;;;;;;7.03;3.97;;;;;;;12.79;56.86;101639.09;5077727;27;20027;-40
2023/05/06 05:19:18;;;;;;;12.60;4.13;;;;;;;12.76;57.13;101641.94;5074786;27;20031;-41
2023/05/06 05:21:43;;;;;;;9.18;4.68;;;;;;;12.79;57.16;101644.38;5059127;27;26599;-36
2023/05/06 05:24:09;;;;;;;10.40;4.63;;;;;;;12.82;57.19;101640.75;5091982;27;20062;-39
2023/05/06 05:26:35;;;;;;;9.52;5.28;;;;;;;12.83;57.09;101644.25;5083144;27;20051;-38
2023/05/06 05:29:00;;;;;;;15.07;4.75;;;;;;;12.86;57.17;101646.72;5093363;27;20053;-38
2023/05/06 05:31:26;;;;;;;12.48;4.40;;;;;;;12.88;57.34;101645.69;5090969;27;20034;-41
2023/05/06 05:33:51;;;;;;;8.95;4.80;;;;;;;12.87;57.04;101644.00;5101594;27;20023;-37
2023/05/06 05:36:17;;;;;;;10.65;5.15;;;;;;;12.88;57.49;101640.41;5084195;27;20087;-40
2023/05/06 05:38:42;;;;;;;10.43;5.28;;;;;;;12.86;57.52;101649.38;5108227;27;20027;-39
2023/05/06 05:41:08;;;;;;;9.82;4.75;;;;;;;12.88;57.35;101643.06;5083022;27;20366;-39
2023/05/06 05:43:33;;;;;;;10.88;4.78;;;;;;;12.90;57.50;101643.00;5108598;27;20042;-40
2023/05/06 05:45:59;;;;;;;8.52;4.95;;;;;;;12.92;57.44;101651.69;5090732;27;20081;-40
2023/05/06 05:48:24;;;;;;;9.80;4.80;;;;;;;12.93;57.41;101646.31;5071084;27;20035;-41
2023/05/06 05:50:49;;;;;;;11.93;4.82;;;;;;;12.91;57.41;101647.34;5106063;27;21021;-36
2023/05/06 05:53:15;;;;;;;10.35;3.10;;;;;;;12.85;57.84;101645.00;5114126;27;20453;-41
2023/05/06 05:55:40;;;;;;;8.15;4.32;;;;;;;12.86;57.74;101650.19;5099130;27;20027;-36
2023/05/06 05:58:06;;;;;;;11.65;4.93;;;;;;;12.85;57.56;101652.94;5104677;27;20034;-36
2023/05/06 06:00:31;;;;;;;9.63;4.78;;;;;;;12.81;57.78;101650.44;5116703;27;20514;-38
2023/05/06 06:02:57;;;;;;;13.02;4.80;;;;;;;12.81;57.96;101652.25;5114924;27;20114;-37
2023/05/06 06:05:23;;;;;;;9.15;4.40;;;;;;;12.86;57.76;101654.66;5117107;27;20385;-37
2023/05/06 06:07:48;;;;;;;7.95;4.20;;;;;;;12.81;57.78;101663.66;5106509;27;20042;-38
2023/05/06 06:10:14;;;;;;;12.80;6.60;;;;;;;12.81;57.80;101661.00;5098740;27;20121;-39
2023/05/06 06:12:40;;;;;;;9.90;5.88;;;;;;;12.76;57.82;101671.00;5109361;27;20076;-41
2023/05/06 06:15:06;;;;;;;10.25;4.70;;;;;;;12.75;57.87;101681.63;5115403;27;20080;-40
2023/05/06 06:17:31;;;;;;;5.60;3.10;;;;;;;12.81;57.93;101682.16;5106274;27;20380;-41
2023/05/06 06:19:58;;;;;;;7.43;4.55;;;;;;;12.84;57.78;101685.56;5109822;27;20558;-36
2023/05/06 06:22:23;;;;;;;9.30;4.72;;;;;;;12.86;57.53;101675.78;5120076;27;20023;-37
2023/05/06 06:24:49;;;;;;;9.50;4.93;;;;;;;12.87;57.37;101680.97;5114515;27;20038;-39
2023/05/06 06:27:14;;;;;;;9.82;4.53;;;;;;;12.77;57.98;101683.25;5106960;27;20035;-37
2023/05/06 06:29:40;;;;;;;9.98;5.03;;;;;;;12.77;58.16;101690.31;5117361;27;20034;-40
2023/05/06 06:32:05;;;;;;;9.63;4.38;;;;;;;12.76;58.20;101692.13;5107818;27;20495;-40
2023/05/06 06:34:30;;;;;;;8.48;4.45;;;;;;;12.80;58.37;101687.53;5101288;27;20152;-40
2023/05/06 06:36:56;;;;;;;10.48;5.22;;;;;;;12.79;58.19;101681.38;5120564;27;20084;-36
2023/05/06 06:39:21;;;;;;;7.60;4.55;;;;;;;12.77;58.19;101682.38;5121401;27;20092;-41
2023/05/06 06:41:47;;;;;;;8.23;4.55;;;;;;;12.78;58.34;101684.94;5105423;27;20507;-41
2023/05/06 06:44:12;;;;;;;9.40;5.50;;;;;;;12.77;58.08;101677.09;5109949;27;20127;-40
2023/05/06 06:46:37;;;;;;;11.05;6.15;;;;;;;12.77;58.14;101683.25;5107783;27;20044;-36
2023/05/06 06:49:03;;;;;;;10.60;5.03;;;;;;;12.77;58.35;101677.97;5121858;27;20034;-38
2023/05/06 06:51:30;;;;;;;10.20;4.55;;;;;;;12.74;58.47;101680.78;5111262;27;20039;-39
2023/05/06 06:53:55;;;;;;;10.88;5.40;;;;;;;12.74;58.27;101682.53;5116906;27;20496;-41
2023/05/06 06:56:21;;;;;;;8.55;4.32;;;;;;;12.68;58.54;101688.16;5112430;27;20114;-41
2023/05/06 06:58:47;;;;;;;10.90;4.22;;;;;;;12.71;58.61;101687.97;5110890;27;20043;-41
2023/05/06 07:01:12;;;;;;;10.02;4.90;;;;;;;12.71;58.54;101683.56;5104457;27;20046;-39
2023/05/06 07:03:38;;;;;;;11.80;4.82;;;;;;;12.72;58.76;101689.69;5099910;27;20028;-38
2023/05/06 07:06:03;;;;;;;10.10;4.90;;;;;;;12.77;58.52;101692.94;5113505;27;20083;-37
2023/05/06 07:08:29;;;;;;;9.80;4.45;;;;;;;12.74;58.62;101699.25;5098691;27;20035;-41
2023/05/06 07:10:55;;;;;;;10.40;5.47;;;;;;;12.78;58.41;101705.22;5105541;27;20083;-39
2023/05/06 07:13:24;;;;;;;15.55;5.35;;;;;;;12.79;58.61;101699.84;5101315;27;20740;-40
2023/05/06 07:15:49;;;;;;;14.10;7.00;;;;;;;12.80;58.45;101704.22;5095285;27;20050;-36
2023/05/06 07:18:15;;;;;;;17.80;9.60;;;;;;;12.79;58.63;101707.78;5091090;27;20055;-40
2023/05/06 07:20:40;;;;;;;23.08;12.38;;;;;;;12.81;58.55;101713.84;5105690;27;20132;-37
2023/05/06 07:23:06;;;;;;;10.23;5.45;;;;;;;12.84;58.53;101719.91;5088550;27;20353;-40
2023/05/06 07:25:32;;;;;;;10.38;4.30;;;;;;;12.87;58.38;101720.59;5115978;27;20027;-39
2023/05/06 07:27:57;;;;;;;12.07;5.38;;;;;;;12.90;58.06;101719.59;5092277;27;20039;-35
2023/05/06 07:30:23;;;;;;;8.70;4.90;;;;;;;12.89;58.37;101725.81;5100570;27;20047;-38
2023/05/06 07:32:49;;;;;;;22.45;9.52;;;;;;;12.91;58.11;101722.13;5094080;27;20121;-39
2023/05/06 07:35:14;;;;;;;11.35;5.13;;;;;;;12.93;58.06;101722.91;5124021;27;20427;-37
2023/05/06 07:37:40;;;;;;;10.98;4.70;;;;;;;12.94;58.02;101715.84;5110482;27;20053;-38
2023/05/06 07:40:06;;;;;;;10.10;4.93;;;;;;;12.91;58.01;101713.38;5109337;27;20039;-39
2023/05/06 07:42:32;;;;;;;10.45;4.53;;;;;;;12.87;58.07;101715.31;5102301;27;20160;-39
2023/05/06 07:44:57;;;;;;;8.07;4.05;;;;;;;12.87;58.30;101719.75;5081318;27;20114;-36
2023/05/06 07:47:29;;;;;;;10.18;4.75;;;;;;;12.90;58.36;101719.59;5119821;27;20031;-38
2023/05/06 07:49:55;;;;;;;9.00;4.07;;;;;;;12.96;58.24;101716.63;5114350;27;20019;-40
2023/05/06 07:52:21;;;;;;;9.05;4.15;;;;;;;13.02;58.19;101724.22;5103838;27;20041;-39
2023/05/06 07:54:49;;;;;;;11.38;5.32;;;;;;;13.05;58.07;101723.22;5099220;27;20023;-41
2023/05/06 07:57:15;;;;;;;12.02;5.82;;;;;;;13.02;58.16;101715.44;5076411;27;20149;-41
2023/05/06 07:59:48;;;;;;;33.53;17.95;;;;;;;13.05;58.33;101726.72;5096767;27;20041;-42
2023/05/06 08:02:14;;;;;;;10.95;5.70;;;;;;;13.04;58.25;101726.78;5072363;27;20355;-39
2023/05/06 08:04:40;;;;;;;8.60;4.43;;;;;;;13.06;58.10;101728.44;5094371;27;20108;-43
2023/05/06 08:07:05;;;;;;;8.25;4.65;;;;;;;13.13;58.05;101728.09;5117043;27;20041;-36
2023/05/06 08:09:31;;;;;;;11.98;4.65;;;;;;;13.17;58.12;101729.63;5103697;27;20042;-40
2023/05/06 08:11:58;;;;;;;8.65;4.38;;;;;;;13.17;57.95;101738.41;5112335;27;20061;-39
2023/05/06 08:14:27;;;;;;;7.88;4.60;;;;;;;13.18;57.87;101739.28;5086202;27;20079;-37
2023/05/06 08:16:56;;;;;;;7.00;4.05;;;;;;;13.16;57.87;101736.69;5106932;27;20091;-40
2023/05/06 08:19:21;;;;;;;10.95;5.18;;;;;;;13.10;58.01;101737.88;5088345;27;20038;-42
2023/05/06 08:21:50;;;;;;;7.20;4.13;;;;;;;13.09;58.02;101741.44;5114396;27;20027;-37
2023/05/06 08:24:15;;;;;;;8.07;4.78;;;;;;;13.13;57.92;101750.09;5093531;27;20612;-37
2023/05/06 08:26:44;;;;;;;9.88;4.28;;;;;;;13.13;57.82;101746.59;5093265;27;20039;-43
2023/05/06 08:29:09;;;;;;;12.30;5.15;;;;;;;13.06;57.93;101751.34;5105085;27;20320;-39
2023/05/06 08:31:35;;;;;;;11.63;4.43;;;;;;;12.97;57.68;101747.38;5108471;27;20026;-41
2023/05/06 08:34:00;;;;;;;9.45;4.97;;;;;;;12.91;57.79;101750.38;5108221;27;20042;-41
2023/05/06 08:36:26;;;;;;;8.63;4.60;;;;;;;12.83;58.08;101749.88;5080917;27;20035;-43
2023/05/06 08:38:51;;;;;;;7.82;4.72;;;;;;;12.77;58.17;101749.28;5088045;27;20027;-42
2023/05/06 08:41:20;;;;;;;8.35;4.65;;;;;;;12.80;58.20;101751.75;5115359;27;20098;-38
2023/05/06 08:43:48;;;;;;;8.95;4.45;;;;;;;12.80;58.11;101762.31;5092475;27;20106;-40
2023/05/06 08:46:13;;;;;;;8.27;4.30;;;;;;;12.80;58.24;101754.38;5118434;27;20034;-35
2023/05/06 08:48:40;;;;;;;9.73;4.38;;;;;;;12.82;58.08;101759.59;5109514;27;20022;-42
2023/05/06 08:51:07;;;;;;;10.60;4.68;;;;;;;12.78;58.14;101758.88;5112127;27;20499;-43
2023/05/06 08:53:32;;;;;;;5.68;2.85;;;;;;;12.71;58.15;101760.16;5104010;27;20117;-43
2023/05/06 08:56:02;;;;;;;11.32;5.15;;;;;;;12.76;57.86;101760.78;5113164;27;20076;-37
2023/05/06 08:58:30;;;;;;;8.93;3.70;;;;;;;12.75;58.28;101764.34;5110341;27;20054;-35
2023/05/06 09:00:56;;;;;;;7.88;3.70;;;;;;;12.77;57.99;101759.84;5100581;27;20031;-40
2023/05/06 09:03:22;;;;;;;7.82;4.18;;;;;;;12.80;57.93;101758.81;5116889;27;20030;-39
2023/05/06 09:05:47;;;;;;;9.38;4.32;;;;;;;12.79;57.89;101767.69;5100583;27;20027;-37
2023/05/06 09:08:14;;;;;;;9.32;4.32;;;;;;;12.82;57.79;101764.88;5117262;27;20047;-36
2023/05/06 09:10:45;;;;;;;12.25;4.10;;;;;;;12.83;57.95;101761.31;5111300;27;20037;-39
2023/05/06 09:13:15;;;;;;;8.02;3.97;;;;;;;12.90;57.96;101767.13;5093233;27;20035;-38
2023/05/06 09:15:43;;;;;;;11.68;4.10;;;;;;;12.90;57.84;101761.84;5113616;27;20442;-40
2023/05/06 09:18:09;;;;;;;9.25;4.28;;;;;;;12.92;57.52;101762.63;5085945;27;20038;-41
2023/05/06 09:20:40;;;;;;;9.65;4.85;;;;;;;12.94;57.68;101766.03;5116066;27;20038;-41
2023/05/06 09:23:07;;;;;;;8.48;4.90;;;;;;;12.89;57.39;101750.41;5099113;27;20026;-39
2023/05/06 09:25:32;;;;;;;9.63;5.43;;;;;;;12.85;57.60;101758.59;5104964;27;20131;-40
2023/05/06 09:28:11;;;;;;;9.27;5.47;;;;;;;12.86;57.98;101752.38;5087260;27;20036;-42
2023/05/06 09:30:41;;;;;;;11.73;5.80;;;;;;;12.88;57.79;101753.16;5107795;27;20556;-41
2023/05/06 09:33:07;;;;;;;8.77;3.92;;;;;;;12.88;58.12;101753.16;5106565;27;20654;-43
2023/05/06 09:36:09;;;;;;;9.10;3.90;;;;;;;12.86;58.53;101750.56;5099925;27;20045;-35
2023/05/06 09:38:41;;;;;;;7.28;4.25;;;;;;;12.86;58.29;101761.13;5089992;27;20035;-36
2023/05/06 09:41:10;;;;;;;;;;;;;;;12.77;58.92;101757.22;5103168;27;20039;-37
2023/05/06 09:43:43;;;;;;;7.85;4.35;;;;;;;12.81;58.12;101758.72;5100535;27;19919;-40
2023/05/06 09:46:42;;;;;;;9.18;4.03;;;;;;;12.76;58.23;101763.41;5116472;27;20058;-38
2023/05/06 09:49:14;;;;;;;6.78;4.20;;;;;;;12.79;58.31;101765.88;5102863;28;20107;-35
2023/05/06 09:51:48;;;;;;;8.23;5.15;;;;;;;12.80;58.39;101772.88;5102271;27;20679;-42
2023/05/06 09:54:16;;;;;;;13.18;6.15;;;;;;;12.80;58.41;101772.03;5113407;27;20015;-39
2023/05/06 09:56:43;;;;;;;6.63;4.28;;;;;;;12.82;58.47;101775.44;5112577;27;20072;-35
2023/05/06 09:59:10;;;;;;;10.20;4.57;;;;;;;12.77;58.97;101773.06;5093455;27;20035;-38
2023/05/06 10:01:36;;;;;;;7.93;4.85;;;;;;;12.68;58.63;101773.50;5102610;27;20050;-40
2023/05/06 10:04:08;;;;;;;9.43;4.70;;;;;;;12.66;59.09;101785.91;5104255;28;20059;-37
2023/05/06 10:06:41;;;;;;;8.65;4.93;;;;;;;12.64;58.94;101772.81;5110422;27;20027;-37
2023/05/06 10:09:08;;;;;;;9.88;4.80;;;;;;;12.60;59.12;101779.16;5092471;27;20042;-38
2023/05/06 10:11:34;;;;;;;8.02;4.32;;;;;;;12.60;59.21;101786.25;5115640;27;20433;-39
2023/05/06 10:14:01;;;;;;;7.70;4.18;;;;;;;12.55;59.19;101778.56;5108836;27;20019;-39
2023/05/06 10:16:30;;;;;;;11.52;6.93;;;;;;;12.53;59.36;101776.91;5091866;27;20102;-40
2023/05/06 10:18:57;;;;;;;13.70;7.45;;;;;;;12.55;59.35;101778.56;5115214;27;20046;-38
2023/05/06 10:21:26;;;;;;;20.20;10.02;;;;;;;12.56;59.41;101784.69;5095260;27;20491;-37
2023/05/06 10:24:10;;;;;;;9.98;6.07;;;;;;;12.56;59.71;101784.69;5108057;27;20035;-37
2023/05/06 10:26:37;;;;;;;21.58;9.98;;;;;;;12.48;59.43;101788.53;5112198;27;20031;-41
2023/05/06 10:29:08;;;;;;;13.05;6.00;;;;;;;12.50;59.55;101778.75;5084980;27;20047;-39
2023/05/06 10:31:37;;;;;;;7.82;4.70;;;;;;;12.54;59.68;101781.25;5109243;27;20028;-42
2023/05/06 10:34:06;;;;;;;8.57;4.75;;;;;;;12.59;59.70;101784.53;5101933;28;20015;-40
2023/05/06 10:36:35;;;;;;;9.80;4.70;;;;;;;12.63;59.70;101786.06;5107845;27;21233;-42
2023/05/06 10:39:02;;;;;;;9.00;4.88;;;;;;;12.67;59.46;101790.28;5116534;27;20019;-38
2023/05/06 10:41:29;;;;;;;11.27;5.10;;;;;;;12.63;59.58;101781.66;5113404;27;20024;-41
2023/05/06 10:43:56;;;;;;;7.65;4.53;;;;;;;12.60;59.62;101787.09;5109244;27;20031;-40
2023/05/06 10:46:23;;;;;;;8.43;4.28;;;;;;;12.59;59.86;101780.09;5116991;27;20027;-40
2023/05/06 10:49:04;;;;;;;13.95;5.07;;;;;;;12.61;60.20;101782.69;5106819;27;20035;-39
2023/05/06 10:51:37;;;;;;;9.70;4.90;;;;;;;12.60;60.15;101781.81;5113568;27;20389;-39
2023/05/06 10:54:07;;;;;;;10.05;3.95;;;;;;;12.60;60.18;101783.59;5101685;27;20035;-38
2023/05/06 10:56:54;;;;;;;10.20;4.35;;;;;;;12.65;60.04;101784.22;5116968;27;20123;-41
2023/05/06 10:59:22;;;;;;;7.72;4.80;;;;;;;12.63;60.06;101781.66;5102673;27;20115;-39
2023/05/06 11:02:06;;;;;;;9.85;4.25;;;;;;;12.64;60.38;101778.09;5102862;27;20425;-39
2023/05/06 11:04:31;;;;;;;7.05;4.65;;;;;;;12.68;59.80;101773.50;5108279;27;21312;-38
2023/05/06 11:07:14;;;;;;;6.97;3.08;;;;;;;12.69;60.29;101780.50;5119351;27;20058;-39
2023/05/06 11:09:54;;;;;;;10.30;5.07;;;;;;;12.77;60.17;101783.63;5111596;27;20393;-41
2023/05/06 11:12:20;;;;;;;5.97;4.07;;;;;;;12.78;59.72;101789.75;5114870;27;20023;-35
2023/05/06 11:14:46;;;;;;;7.88;3.65;;;;;;;12.75;60.00;101788.13;5115150;27;20039;-37
2023/05/06 11:17:30;;;;;;;5.07;2.47;;;;;;;12.72;61.17;101790.03;5083529;27;20028;-39
2023/05/06 11:20:21;;;;;;;8.35;4.20;;;;;;;12.73;61.04;101782.06;5115307;27;20023;-35
2023/05/06 11:22:47;;;;;;;8.93;5.30;;;;;;;12.73;60.64;101784.69;5112203;27;20027;-39
2023/05/06 11:25:12;;;;;;;11.68;6.68;;;;;;;12.78;60.64;101790.59;5120411;27;20450;-42